sensor_id;sensor_type;location;lat;lon;timestamp;P1;durP1;ratioP1;P2;durP2;ratioP2
52508;SDS011;38420;53.150;6.370;2023-04-08T00:00:20;13.93;;;8.43;;
52508;SDS011;38420;53.150;6.370;2023-04-08T00:02:46;13.80;;;9.15;;
52508;SDS011;38420;53.150;6.370;2023-04-08T00:05:11;13.85;;;8.50;;
52508;SDS011;38420;53.150;6.370;2023-04-08T00:07:37;13.15;;;9.63;;
52508;SDS011;38420;53.150;6.370;2023-04-08T00:10:03;14.95;;;10.13;;
52508;SDS011;38420;53.150;6.370;2023-04-08T00:12:29;14.18;;;9.98;;
52508;SDS011;38420;53.150;6.370;2023-04-08T00:14:55;16.58;;;10.10;;
52508;SDS011;38420;53.150;6.370;2023-04-08T00:17:21;13.75;;;9.10;;
52508;SDS011;38420;53.150;6.370;2023-04-08T00:19:47;15.75;;;10.23;;
52508;SDS011;38420;53.150;6.370;2023-04-08T00:22:12;17.10;;;10.20;;
52508;SDS011;38420;53.150;6.370;2023-04-08T00:24:38;17.05;;;10.75;;
52508;SDS011;38420;53.150;6.370;2023-04-08T00:27:04;17.85;;;10.88;;
52508;SDS011;38420;53.150;6.370;2023-04-08T00:29:30;16.77;;;10.93;;
52508;SDS011;38420;53.150;6.370;2023-04-08T00:31:56;17.00;;;10.98;;
52508;SDS011;38420;53.150;6.370;2023-04-08T00:34:21;15.77;;;10.48;;
52508;SDS011;38420;53.150;6.370;2023-04-08T00:36:47;18.75;;;11.13;;
52508;SDS011;38420;53.150;6.370;2023-04-08T00:39:13;18.30;;;12.02;;
52508;SDS011;38420;53.150;6.370;2023-04-08T00:41:39;18.85;;;12.43;;
52508;SDS011;38420;53.150;6.370;2023-04-08T00:44:04;19.55;;;12.30;;
52508;SDS011;38420;53.150;6.370;2023-04-08T00:46:32;19.10;;;12.27;;
52508;SDS011;38420;53.150;6.370;2023-04-08T00:49:02;19.25;;;11.75;;
52508;SDS011;38420;53.150;6.370;2023-04-08T00:51:29;22.00;;;12.88;;
52508;SDS011;38420;53.150;6.370;2023-04-08T00:53:55;20.92;;;12.32;;
52508;SDS011;38420;53.150;6.370;2023-04-08T00:56:21;20.67;;;12.73;;
52508;SDS011;38420;53.150;6.370;2023-04-08T00:58:48;21.10;;;13.20;;
52508;SDS011;38420;53.150;6.370;2023-04-08T01:01:21;20.00;;;13.27;;
52508;SDS011;38420;53.150;6.370;2023-04-08T01:04:06;22.65;;;14.63;;
52508;SDS011;38420;53.150;6.370;2023-04-08T01:06:38;19.52;;;13.00;;
52508;SDS011;38420;53.150;6.370;2023-04-08T01:09:12;16.83;;;12.38;;
52508;SDS011;38420;53.150;6.370;2023-04-08T01:11:42;21.13;;;13.77;;
52508;SDS011;38420;53.150;6.370;2023-04-08T01:14:10;22.13;;;13.98;;
52508;SDS011;38420;53.150;6.370;2023-04-08T01:16:41;23.17;;;14.50;;
52508;SDS011;38420;53.150;6.370;2023-04-08T01:19:07;26.27;;;14.95;;
52508;SDS011;38420;53.150;6.370;2023-04-08T01:21:42;20.65;;;14.30;;
52508;SDS011;38420;53.150;6.370;2023-04-08T01:24:10;19.80;;;13.68;;
52508;SDS011;38420;53.150;6.370;2023-04-08T01:26:40;22.77;;;14.18;;
52508;SDS011;38420;53.150;6.370;2023-04-08T01:29:07;23.60;;;14.80;;
52508;SDS011;38420;53.150;6.370;2023-04-08T01:31:35;21.55;;;14.25;;
52508;SDS011;38420;53.150;6.370;2023-04-08T01:34:02;24.30;;;14.68;;
52508;SDS011;38420;53.150;6.370;2023-04-08T01:36:30;24.45;;;14.43;;
52508;SDS011;38420;53.150;6.370;2023-04-08T01:38:57;24.17;;;14.57;;
52508;SDS011;38420;53.150;6.370;2023-04-08T01:41:25;22.15;;;14.68;;
52508;SDS011;38420;53.150;6.370;2023-04-08T01:43:52;23.48;;;15.48;;
52508;SDS011;38420;53.150;6.370;2023-04-08T01:46:18;24.75;;;15.45;;
52508;SDS011;38420;53.150;6.370;2023-04-08T01:48:45;24.88;;;15.38;;
52508;SDS011;38420;53.150;6.370;2023-04-08T01:51:12;23.58;;;14.43;;
52508;SDS011;38420;53.150;6.370;2023-04-08T01:53:39;27.75;;;15.93;;
52508;SDS011;38420;53.150;6.370;2023-04-08T01:56:05;25.65;;;16.00;;
52508;SDS011;38420;53.150;6.370;2023-04-08T01:58:36;22.23;;;15.52;;
52508;SDS011;38420;53.150;6.370;2023-04-08T02:01:16;21.05;;;14.85;;
52508;SDS011;38420;53.150;6.370;2023-04-08T02:03:44;26.52;;;15.98;;
52508;SDS011;38420;53.150;6.370;2023-04-08T02:06:11;27.20;;;16.67;;
52508;SDS011;38420;53.150;6.370;2023-04-08T02:08:37;28.38;;;16.55;;
52508;SDS011;38420;53.150;6.370;2023-04-08T02:11:02;25.05;;;16.88;;
52508;SDS011;38420;53.150;6.370;2023-04-08T02:13:29;26.13;;;16.88;;
52508;SDS011;38420;53.150;6.370;2023-04-08T02:21:19;26.33;;;16.60;;
52508;SDS011;38420;53.150;6.370;2023-04-08T02:23:51;29.70;;;17.73;;
52508;SDS011;38420;53.150;6.370;2023-04-08T02:26:17;33.08;;;19.30;;
52508;SDS011;38420;53.150;6.370;2023-04-08T02:28:44;30.63;;;18.95;;
52508;SDS011;38420;53.150;6.370;2023-04-08T02:31:13;32.53;;;19.08;;
52508;SDS011;38420;53.150;6.370;2023-04-08T02:33:42;28.75;;;19.63;;
52508;SDS011;38420;53.150;6.370;2023-04-08T02:36:08;29.63;;;18.80;;
52508;SDS011;38420;53.150;6.370;2023-04-08T02:38:35;31.95;;;19.83;;
52508;SDS011;38420;53.150;6.370;2023-04-08T02:41:01;34.53;;;20.55;;
52508;SDS011;38420;53.150;6.370;2023-04-08T02:43:26;33.45;;;20.63;;
52508;SDS011;38420;53.150;6.370;2023-04-08T02:45:58;33.03;;;19.25;;
52508;SDS011;38420;53.150;6.370;2023-04-08T02:48:27;34.33;;;20.33;;
52508;SDS011;38420;53.150;6.370;2023-04-08T02:50:53;33.88;;;19.52;;
52508;SDS011;38420;53.150;6.370;2023-04-08T02:53:19;32.58;;;21.25;;
52508;SDS011;38420;53.150;6.370;2023-04-08T02:55:44;35.90;;;20.95;;
52508;SDS011;38420;53.150;6.370;2023-04-08T02:58:10;35.92;;;21.60;;
52508;SDS011;38420;53.150;6.370;2023-04-08T03:00:35;33.70;;;20.33;;
52508;SDS011;38420;53.150;6.370;2023-04-08T03:03:03;36.88;;;22.05;;
52508;SDS011;38420;53.150;6.370;2023-04-08T03:05:30;38.80;;;22.02;;
52508;SDS011;38420;53.150;6.370;2023-04-08T03:07:56;34.17;;;21.08;;
52508;SDS011;38420;53.150;6.370;2023-04-08T03:10:22;36.72;;;22.35;;
52508;SDS011;38420;53.150;6.370;2023-04-08T03:12:47;35.90;;;21.77;;
52508;SDS011;38420;53.150;6.370;2023-04-08T03:15:13;38.47;;;21.63;;
52508;SDS011;38420;53.150;6.370;2023-04-08T03:17:39;33.25;;;21.33;;
52508;SDS011;38420;53.150;6.370;2023-04-08T03:20:05;38.42;;;22.02;;
52508;SDS011;38420;53.150;6.370;2023-04-08T03:22:31;38.65;;;23.40;;
52508;SDS011;38420;53.150;6.370;2023-04-08T03:24:58;38.03;;;22.98;;
52508;SDS011;38420;53.150;6.370;2023-04-08T03:27:23;40.05;;;22.92;;
52508;SDS011;38420;53.150;6.370;2023-04-08T03:29:49;38.63;;;23.58;;
52508;SDS011;38420;53.150;6.370;2023-04-08T03:32:15;40.63;;;23.20;;
52508;SDS011;38420;53.150;6.370;2023-04-08T03:34:40;41.38;;;22.77;;
52508;SDS011;38420;53.150;6.370;2023-04-08T03:37:06;39.45;;;23.05;;
52508;SDS011;38420;53.150;6.370;2023-04-08T03:39:32;39.70;;;23.80;;
52508;SDS011;38420;53.150;6.370;2023-04-08T03:41:57;41.00;;;22.58;;
52508;SDS011;38420;53.150;6.370;2023-04-08T03:44:25;40.20;;;23.48;;
52508;SDS011;38420;53.150;6.370;2023-04-08T03:46:51;36.53;;;23.13;;
52508;SDS011;38420;53.150;6.370;2023-04-08T03:49:16;42.45;;;23.10;;
52508;SDS011;38420;53.150;6.370;2023-04-08T03:51:42;39.53;;;21.52;;
52508;SDS011;38420;53.150;6.370;2023-04-08T03:54:08;38.95;;;23.35;;
52508;SDS011;38420;53.150;6.370;2023-04-08T03:56:33;42.15;;;24.17;;
52508;SDS011;38420;53.150;6.370;2023-04-08T03:58:59;37.53;;;21.55;;
52508;SDS011;38420;53.150;6.370;2023-04-08T04:01:25;36.88;;;22.52;;
52508;SDS011;38420;53.150;6.370;2023-04-08T04:03:50;37.85;;;23.05;;
52508;SDS011;38420;53.150;6.370;2023-04-08T04:06:16;42.35;;;23.15;;
52508;SDS011;38420;53.150;6.370;2023-04-08T04:08:41;39.30;;;23.38;;
52508;SDS011;38420;53.150;6.370;2023-04-08T04:11:07;40.38;;;22.98;;
52508;SDS011;38420;53.150;6.370;2023-04-08T04:13:33;42.38;;;23.58;;
52508;SDS011;38420;53.150;6.370;2023-04-08T04:15:58;36.22;;;22.13;;
52508;SDS011;38420;53.150;6.370;2023-04-08T04:18:24;38.35;;;23.00;;
52508;SDS011;38420;53.150;6.370;2023-04-08T04:20:49;40.20;;;23.48;;
52508;SDS011;38420;53.150;6.370;2023-04-08T04:23:15;43.03;;;23.98;;
52508;SDS011;38420;53.150;6.370;2023-04-08T04:25:41;44.95;;;24.42;;
52508;SDS011;38420;53.150;6.370;2023-04-08T04:28:07;42.40;;;23.52;;
52508;SDS011;38420;53.150;6.370;2023-04-08T04:30:35;45.33;;;24.48;;
52508;SDS011;38420;53.150;6.370;2023-04-08T04:33:02;42.78;;;24.98;;
52508;SDS011;38420;53.150;6.370;2023-04-08T04:35:28;45.13;;;24.92;;
52508;SDS011;38420;53.150;6.370;2023-04-08T04:37:54;50.33;;;26.80;;
52508;SDS011;38420;53.150;6.370;2023-04-08T04:40:19;43.10;;;24.48;;
52508;SDS011;38420;53.150;6.370;2023-04-08T04:42:45;44.30;;;26.88;;
52508;SDS011;38420;53.150;6.370;2023-04-08T04:45:11;47.92;;;27.35;;
52508;SDS011;38420;53.150;6.370;2023-04-08T04:47:36;45.53;;;25.52;;
52508;SDS011;38420;53.150;6.370;2023-04-08T04:50:02;54.13;;;28.10;;
52508;SDS011;38420;53.150;6.370;2023-04-08T04:52:28;47.90;;;27.90;;
52508;SDS011;38420;53.150;6.370;2023-04-08T04:54:53;51.17;;;26.75;;
52508;SDS011;38420;53.150;6.370;2023-04-08T04:57:20;51.10;;;27.05;;
52508;SDS011;38420;53.150;6.370;2023-04-08T04:59:46;47.05;;;26.55;;
52508;SDS011;38420;53.150;6.370;2023-04-08T05:02:12;51.25;;;27.15;;
52508;SDS011;38420;53.150;6.370;2023-04-08T05:04:37;47.35;;;26.05;;
52508;SDS011;38420;53.150;6.370;2023-04-08T05:07:03;49.00;;;26.95;;
52508;SDS011;38420;53.150;6.370;2023-04-08T05:09:29;47.80;;;27.17;;
52508;SDS011;38420;53.150;6.370;2023-04-08T05:11:55;50.35;;;27.75;;
52508;SDS011;38420;53.150;6.370;2023-04-08T05:14:21;48.15;;;26.60;;
52508;SDS011;38420;53.150;6.370;2023-04-08T05:16:47;50.25;;;27.33;;
52508;SDS011;38420;53.150;6.370;2023-04-08T05:19:12;49.20;;;27.05;;
52508;SDS011;38420;53.150;6.370;2023-04-08T05:21:38;48.17;;;27.98;;
52508;SDS011;38420;53.150;6.370;2023-04-08T05:24:03;51.22;;;28.33;;
52508;SDS011;38420;53.150;6.370;2023-04-08T05:26:29;52.88;;;29.17;;
52508;SDS011;38420;53.150;6.370;2023-04-08T05:28:55;51.13;;;27.95;;
52508;SDS011;38420;53.150;6.370;2023-04-08T05:31:21;54.15;;;28.33;;
52508;SDS011;38420;53.150;6.370;2023-04-08T05:33:46;51.20;;;28.48;;
52508;SDS011;38420;53.150;6.370;2023-04-08T05:36:12;51.80;;;27.98;;
52508;SDS011;38420;53.150;6.370;2023-04-08T05:38:39;53.00;;;28.38;;
52508;SDS011;38420;53.150;6.370;2023-04-08T05:41:06;52.28;;;28.45;;
52508;SDS011;38420;53.150;6.370;2023-04-08T05:43:32;54.47;;;27.95;;
52508;SDS011;38420;53.150;6.370;2023-04-08T05:45:58;56.13;;;29.65;;
52508;SDS011;38420;53.150;6.370;2023-04-08T05:48:23;54.90;;;28.80;;
52508;SDS011;38420;53.150;6.370;2023-04-08T05:50:49;54.33;;;29.88;;
52508;SDS011;38420;53.150;6.370;2023-04-08T05:53:15;60.83;;;30.67;;
52508;SDS011;38420;53.150;6.370;2023-04-08T05:55:41;56.08;;;30.58;;
52508;SDS011;38420;53.150;6.370;2023-04-08T05:58:07;57.45;;;30.50;;
52508;SDS011;38420;53.150;6.370;2023-04-08T06:00:32;55.95;;;30.35;;
52508;SDS011;38420;53.150;6.370;2023-04-08T06:02:58;53.55;;;30.33;;
52508;SDS011;38420;53.150;6.370;2023-04-08T06:05:24;56.50;;;29.98;;
52508;SDS011;38420;53.150;6.370;2023-04-08T06:07:50;59.28;;;31.30;;
52508;SDS011;38420;53.150;6.370;2023-04-08T06:10:16;58.40;;;31.13;;
52508;SDS011;38420;53.150;6.370;2023-04-08T06:12:41;60.22;;;31.30;;
52508;SDS011;38420;53.150;6.370;2023-04-08T06:15:07;58.75;;;30.98;;
52508;SDS011;38420;53.150;6.370;2023-04-08T06:17:37;66.68;;;33.78;;
52508;SDS011;38420;53.150;6.370;2023-04-08T06:20:03;59.58;;;30.77;;
52508;SDS011;38420;53.150;6.370;2023-04-08T06:22:30;57.20;;;30.52;;
52508;SDS011;38420;53.150;6.370;2023-04-08T06:24:55;62.13;;;31.88;;
52508;SDS011;38420;53.150;6.370;2023-04-08T06:27:21;58.90;;;31.38;;
52508;SDS011;38420;53.150;6.370;2023-04-08T06:29:47;64.53;;;33.22;;
52508;SDS011;38420;53.150;6.370;2023-04-08T06:32:12;65.28;;;32.60;;
52508;SDS011;38420;53.150;6.370;2023-04-08T06:34:38;62.55;;;32.83;;
52508;SDS011;38420;53.150;6.370;2023-04-08T06:37:05;61.42;;;33.25;;
52508;SDS011;38420;53.150;6.370;2023-04-08T06:39:31;58.95;;;32.80;;
52508;SDS011;38420;53.150;6.370;2023-04-08T06:41:57;59.95;;;32.65;;
52508;SDS011;38420;53.150;6.370;2023-04-08T06:44:23;59.15;;;33.38;;
52508;SDS011;38420;53.150;6.370;2023-04-08T06:46:48;61.35;;;34.10;;
52508;SDS011;38420;53.150;6.370;2023-04-08T06:49:14;58.25;;;32.72;;
52508;SDS011;38420;53.150;6.370;2023-04-08T06:51:40;59.55;;;32.38;;
52508;SDS011;38420;53.150;6.370;2023-04-08T06:54:06;56.20;;;31.67;;
52508;SDS011;38420;53.150;6.370;2023-04-08T06:56:31;52.05;;;29.88;;
52508;SDS011;38420;53.150;6.370;2023-04-08T06:58:57;54.13;;;32.00;;
52508;SDS011;38420;53.150;6.370;2023-04-08T07:01:23;50.75;;;29.52;;
52508;SDS011;38420;53.150;6.370;2023-04-08T07:03:49;54.45;;;29.58;;
52508;SDS011;38420;53.150;6.370;2023-04-08T07:06:15;50.45;;;29.13;;
52508;SDS011;38420;53.150;6.370;2023-04-08T07:08:40;50.03;;;28.30;;
52508;SDS011;38420;53.150;6.370;2023-04-08T07:11:06;45.83;;;27.77;;
52508;SDS011;38420;53.150;6.370;2023-04-08T07:13:32;46.92;;;25.95;;
52508;SDS011;38420;53.150;6.370;2023-04-08T07:15:58;43.08;;;27.05;;
52508;SDS011;38420;53.150;6.370;2023-04-08T07:18:23;44.10;;;24.38;;
52508;SDS011;38420;53.150;6.370;2023-04-08T07:20:50;37.97;;;23.17;;
52508;SDS011;38420;53.150;6.370;2023-04-08T07:23:17;37.45;;;23.38;;
52508;SDS011;38420;53.150;6.370;2023-04-08T07:25:44;36.30;;;22.23;;
52508;SDS011;38420;53.150;6.370;2023-04-08T07:28:10;32.50;;;20.33;;
52508;SDS011;38420;53.150;6.370;2023-04-08T07:30:35;31.77;;;20.75;;
52508;SDS011;38420;53.150;6.370;2023-04-08T07:33:01;30.98;;;20.02;;
52508;SDS011;38420;53.150;6.370;2023-04-08T07:35:27;34.58;;;20.17;;
52508;SDS011;38420;53.150;6.370;2023-04-08T07:37:53;32.05;;;21.10;;
52508;SDS011;38420;53.150;6.370;2023-04-08T07:40:19;34.85;;;20.88;;
52508;SDS011;38420;53.150;6.370;2023-04-08T07:42:45;32.60;;;21.92;;
52508;SDS011;38420;53.150;6.370;2023-04-08T07:45:11;36.75;;;22.30;;
52508;SDS011;38420;53.150;6.370;2023-04-08T07:47:36;39.92;;;23.65;;
52508;SDS011;38420;53.150;6.370;2023-04-08T07:50:02;39.80;;;23.25;;
52508;SDS011;38420;53.150;6.370;2023-04-08T07:52:31;38.78;;;23.48;;
52508;SDS011;38420;53.150;6.370;2023-04-08T07:54:57;36.50;;;22.90;;
52508;SDS011;38420;53.150;6.370;2023-04-08T07:57:23;35.05;;;21.98;;
52508;SDS011;38420;53.150;6.370;2023-04-08T07:59:49;32.35;;;21.50;;
52508;SDS011;38420;53.150;6.370;2023-04-08T08:02:15;32.78;;;20.95;;
52508;SDS011;38420;53.150;6.370;2023-04-08T08:04:40;30.85;;;19.80;;
52508;SDS011;38420;53.150;6.370;2023-04-08T08:07:06;29.67;;;19.83;;
52508;SDS011;38420;53.150;6.370;2023-04-08T08:09:31;31.95;;;20.92;;
52508;SDS011;38420;53.150;6.370;2023-04-08T08:11:57;30.25;;;19.80;;
52508;SDS011;38420;53.150;6.370;2023-04-08T08:14:22;30.00;;;19.23;;
52508;SDS011;38420;53.150;6.370;2023-04-08T08:16:50;29.27;;;19.00;;
52508;SDS011;38420;53.150;6.370;2023-04-08T08:19:16;25.80;;;17.55;;
52508;SDS011;38420;53.150;6.370;2023-04-08T08:21:42;26.73;;;18.58;;
52508;SDS011;38420;53.150;6.370;2023-04-08T08:24:07;29.30;;;19.13;;
52508;SDS011;38420;53.150;6.370;2023-04-08T08:26:34;27.08;;;18.45;;
52508;SDS011;38420;53.150;6.370;2023-04-08T08:29:01;26.90;;;18.05;;
52508;SDS011;38420;53.150;6.370;2023-04-08T08:31:26;26.38;;;16.92;;
52508;SDS011;38420;53.150;6.370;2023-04-08T08:33:52;27.52;;;18.15;;
52508;SDS011;38420;53.150;6.370;2023-04-08T08:36:17;25.60;;;16.63;;
52508;SDS011;38420;53.150;6.370;2023-04-08T08:38:43;29.50;;;18.38;;
52508;SDS011;38420;53.150;6.370;2023-04-08T08:41:09;28.95;;;18.20;;
52508;SDS011;38420;53.150;6.370;2023-04-08T08:43:35;29.25;;;18.05;;
52508;SDS011;38420;53.150;6.370;2023-04-08T08:46:02;24.95;;;16.70;;
52508;SDS011;38420;53.150;6.370;2023-04-08T08:48:27;28.38;;;17.90;;
52508;SDS011;38420;53.150;6.370;2023-04-08T08:50:53;26.23;;;17.65;;
52508;SDS011;38420;53.150;6.370;2023-04-08T08:53:19;28.55;;;18.75;;
52508;SDS011;38420;53.150;6.370;2023-04-08T08:55:47;26.02;;;17.40;;
52508;SDS011;38420;53.150;6.370;2023-04-08T08:58:12;25.80;;;18.20;;
52508;SDS011;38420;53.150;6.370;2023-04-08T09:00:39;23.83;;;16.25;;
52508;SDS011;38420;53.150;6.370;2023-04-08T09:03:12;25.33;;;17.25;;
52508;SDS011;38420;53.150;6.370;2023-04-08T09:05:53;27.00;;;16.20;;
52508;SDS011;38420;53.150;6.370;2023-04-08T09:08:30;23.83;;;16.58;;
52508;SDS011;38420;53.150;6.370;2023-04-08T09:13:44;28.45;;;18.35;;
52508;SDS011;38420;53.150;6.370;2023-04-08T09:16:11;33.92;;;19.58;;
52508;SDS011;38420;53.150;6.370;2023-04-08T09:18:42;31.42;;;19.42;;
52508;SDS011;38420;53.150;6.370;2023-04-08T09:21:10;32.75;;;21.45;;
52508;SDS011;38420;53.150;6.370;2023-04-08T09:23:37;31.52;;;20.08;;
52508;SDS011;38420;53.150;6.370;2023-04-08T09:26:17;27.98;;;17.30;;
52508;SDS011;38420;53.150;6.370;2023-04-08T09:28:55;26.80;;;17.27;;
52508;SDS011;38420;53.150;6.370;2023-04-08T09:31:23;25.95;;;17.15;;
52508;SDS011;38420;53.150;6.370;2023-04-08T09:33:52;23.67;;;15.98;;
52508;SDS011;38420;53.150;6.370;2023-04-08T09:36:19;22.80;;;15.75;;
52508;SDS011;38420;53.150;6.370;2023-04-08T09:38:45;22.48;;;14.75;;
52508;SDS011;38420;53.150;6.370;2023-04-08T09:41:13;20.17;;;15.35;;
52508;SDS011;38420;53.150;6.370;2023-04-08T09:43:44;23.10;;;16.08;;
52508;SDS011;38420;53.150;6.370;2023-04-08T09:46:16;24.35;;;17.13;;
52508;SDS011;38420;53.150;6.370;2023-04-08T09:48:49;23.75;;;16.10;;
52508;SDS011;38420;53.150;6.370;2023-04-08T09:51:24;23.08;;;15.07;;
52508;SDS011;38420;53.150;6.370;2023-04-08T09:53:58;21.50;;;14.85;;
52508;SDS011;38420;53.150;6.370;2023-04-08T09:56:29;23.30;;;14.27;;
52508;SDS011;38420;53.150;6.370;2023-04-08T09:59:08;21.65;;;14.25;;
52508;SDS011;38420;53.150;6.370;2023-04-08T10:01:39;23.15;;;14.95;;
52508;SDS011;38420;53.150;6.370;2023-04-08T10:04:11;21.88;;;14.07;;
52508;SDS011;38420;53.150;6.370;2023-04-08T10:06:41;20.17;;;13.95;;
52508;SDS011;38420;53.150;6.370;2023-04-08T10:09:07;20.55;;;13.88;;
52508;SDS011;38420;53.150;6.370;2023-04-08T10:11:34;21.25;;;14.13;;
52508;SDS011;38420;53.150;6.370;2023-04-08T10:14:01;19.92;;;14.13;;
52508;SDS011;38420;53.150;6.370;2023-04-08T10:16:27;21.67;;;14.35;;
52508;SDS011;38420;53.150;6.370;2023-04-08T10:18:53;22.95;;;14.48;;
52508;SDS011;38420;53.150;6.370;2023-04-08T10:21:30;21.08;;;13.80;;
52508;SDS011;38420;53.150;6.370;2023-04-08T10:23:56;23.13;;;14.32;;
52508;SDS011;38420;53.150;6.370;2023-04-08T10:26:30;21.67;;;14.40;;
52508;SDS011;38420;53.150;6.370;2023-04-08T10:31:45;22.50;;;15.00;;
52508;SDS011;38420;53.150;6.370;2023-04-08T10:34:18;27.15;;;15.75;;
52508;SDS011;38420;53.150;6.370;2023-04-08T10:36:51;26.67;;;15.15;;
52508;SDS011;38420;53.150;6.370;2023-04-08T10:39:19;24.27;;;15.18;;
52508;SDS011;38420;53.150;6.370;2023-04-08T10:41:46;22.23;;;15.43;;
52508;SDS011;38420;53.150;6.370;2023-04-08T10:46:51;25.63;;;16.65;;
52508;SDS011;38420;53.150;6.370;2023-04-08T10:49:18;24.95;;;16.15;;
52508;SDS011;38420;53.150;6.370;2023-04-08T10:51:44;24.63;;;16.80;;
52508;SDS011;38420;53.150;6.370;2023-04-08T10:54:11;21.55;;;14.75;;
52508;SDS011;38420;53.150;6.370;2023-04-08T10:56:47;22.90;;;15.07;;
52508;SDS011;38420;53.150;6.370;2023-04-08T10:59:27;25.75;;;15.35;;
52508;SDS011;38420;53.150;6.370;2023-04-08T11:01:54;23.48;;;14.90;;
52508;SDS011;38420;53.150;6.370;2023-04-08T11:04:20;22.45;;;14.93;;
52508;SDS011;38420;53.150;6.370;2023-04-08T11:06:47;23.63;;;15.85;;
52508;SDS011;38420;53.150;6.370;2023-04-08T11:09:14;24.17;;;14.68;;
52508;SDS011;38420;53.150;6.370;2023-04-08T11:11:41;24.05;;;14.77;;
52508;SDS011;38420;53.150;6.370;2023-04-08T11:14:07;23.40;;;14.73;;
52508;SDS011;38420;53.150;6.370;2023-04-08T11:16:33;25.38;;;16.00;;
52508;SDS011;38420;53.150;6.370;2023-04-08T11:19:01;26.38;;;16.58;;
52508;SDS011;38420;53.150;6.370;2023-04-08T11:21:29;23.50;;;16.27;;
52508;SDS011;38420;53.150;6.370;2023-04-08T11:23:55;24.80;;;15.63;;
52508;SDS011;38420;53.150;6.370;2023-04-08T11:26:23;23.38;;;14.93;;
52508;SDS011;38420;53.150;6.370;2023-04-08T11:28:49;23.90;;;15.35;;
52508;SDS011;38420;53.150;6.370;2023-04-08T11:31:16;26.10;;;15.07;;
52508;SDS011;38420;53.150;6.370;2023-04-08T11:33:43;25.40;;;15.07;;
52508;SDS011;38420;53.150;6.370;2023-04-08T11:36:10;21.02;;;15.23;;
52508;SDS011;38420;53.150;6.370;2023-04-08T11:38:37;25.10;;;15.77;;
52508;SDS011;38420;53.150;6.370;2023-04-08T11:41:04;26.60;;;16.95;;
52508;SDS011;38420;53.150;6.370;2023-04-08T11:43:30;27.42;;;17.20;;
52508;SDS011;38420;53.150;6.370;2023-04-08T11:45:56;31.70;;;16.92;;
52508;SDS011;38420;53.150;6.370;2023-04-08T11:48:21;30.73;;;18.38;;
52508;SDS011;38420;53.150;6.370;2023-04-08T11:50:47;28.45;;;17.70;;
52508;SDS011;38420;53.150;6.370;2023-04-08T11:53:27;28.05;;;18.45;;
52508;SDS011;38420;53.150;6.370;2023-04-08T11:55:53;26.70;;;16.75;;
52508;SDS011;38420;53.150;6.370;2023-04-08T11:58:20;27.15;;;17.75;;
52508;SDS011;38420;53.150;6.370;2023-04-08T12:00:46;29.27;;;18.73;;
52508;SDS011;38420;53.150;6.370;2023-04-08T12:03:13;30.60;;;19.08;;
52508;SDS011;38420;53.150;6.370;2023-04-08T12:05:39;30.52;;;18.65;;
52508;SDS011;38420;53.150;6.370;2023-04-08T12:08:04;28.33;;;18.83;;
52508;SDS011;38420;53.150;6.370;2023-04-08T12:10:30;33.45;;;19.10;;
52508;SDS011;38420;53.150;6.370;2023-04-08T12:12:56;31.88;;;20.05;;
52508;SDS011;38420;53.150;6.370;2023-04-08T12:15:22;30.33;;;18.75;;
52508;SDS011;38420;53.150;6.370;2023-04-08T12:17:47;39.00;;;19.02;;
52508;SDS011;38420;53.150;6.370;2023-04-08T12:20:13;28.45;;;18.73;;
52508;SDS011;38420;53.150;6.370;2023-04-08T12:22:41;33.33;;;19.48;;
52508;SDS011;38420;53.150;6.370;2023-04-08T12:25:06;32.28;;;19.55;;
52508;SDS011;38420;53.150;6.370;2023-04-08T12:27:32;33.40;;;19.40;;
52508;SDS011;38420;53.150;6.370;2023-04-08T12:29:58;30.65;;;18.90;;
52508;SDS011;38420;53.150;6.370;2023-04-08T12:32:24;29.88;;;19.38;;
52508;SDS011;38420;53.150;6.370;2023-04-08T12:34:50;35.28;;;19.50;;
52508;SDS011;38420;53.150;6.370;2023-04-08T12:37:16;31.83;;;18.27;;
52508;SDS011;38420;53.150;6.370;2023-04-08T12:39:42;31.60;;;19.13;;
52508;SDS011;38420;53.150;6.370;2023-04-08T12:42:07;32.63;;;19.15;;
52508;SDS011;38420;53.150;6.370;2023-04-08T12:44:33;34.70;;;19.77;;
52508;SDS011;38420;53.150;6.370;2023-04-08T12:46:58;32.65;;;19.23;;
52508;SDS011;38420;53.150;6.370;2023-04-08T12:49:24;29.67;;;19.25;;
52508;SDS011;38420;53.150;6.370;2023-04-08T12:51:51;26.23;;;17.02;;
52508;SDS011;38420;53.150;6.370;2023-04-08T12:54:16;28.83;;;18.75;;
52508;SDS011;38420;53.150;6.370;2023-04-08T12:56:42;31.20;;;19.05;;
52508;SDS011;38420;53.150;6.370;2023-04-08T12:59:08;30.13;;;19.40;;
52508;SDS011;38420;53.150;6.370;2023-04-08T13:01:34;31.60;;;18.90;;
52508;SDS011;38420;53.150;6.370;2023-04-08T13:04:00;32.15;;;19.45;;
52508;SDS011;38420;53.150;6.370;2023-04-08T13:06:25;33.45;;;21.00;;
52508;SDS011;38420;53.150;6.370;2023-04-08T13:08:52;28.48;;;18.85;;
52508;SDS011;38420;53.150;6.370;2023-04-08T13:11:18;34.30;;;21.15;;
52508;SDS011;38420;53.150;6.370;2023-04-08T13:13:43;30.65;;;20.08;;
52508;SDS011;38420;53.150;6.370;2023-04-08T13:16:11;31.65;;;19.85;;
52508;SDS011;38420;53.150;6.370;2023-04-08T13:18:38;31.38;;;19.58;;
52508;SDS011;38420;53.150;6.370;2023-04-08T13:21:05;28.13;;;19.73;;
52508;SDS011;38420;53.150;6.370;2023-04-08T13:23:31;32.13;;;20.02;;
52508;SDS011;38420;53.150;6.370;2023-04-08T13:25:56;31.30;;;19.80;;
52508;SDS011;38420;53.150;6.370;2023-04-08T13:28:22;24.95;;;18.15;;
52508;SDS011;38420;53.150;6.370;2023-04-08T13:30:47;30.98;;;20.67;;
52508;SDS011;38420;53.150;6.370;2023-04-08T13:33:13;25.27;;;18.17;;
52508;SDS011;38420;53.150;6.370;2023-04-08T13:35:39;29.33;;;18.63;;
52508;SDS011;38420;53.150;6.370;2023-04-08T13:38:04;30.80;;;19.63;;
52508;SDS011;38420;53.150;6.370;2023-04-08T13:40:30;31.13;;;20.20;;
52508;SDS011;38420;53.150;6.370;2023-04-08T13:42:55;33.70;;;20.10;;
52508;SDS011;38420;53.150;6.370;2023-04-08T13:45:21;27.98;;;19.45;;
52508;SDS011;38420;53.150;6.370;2023-04-08T13:47:47;27.75;;;17.98;;
52508;SDS011;38420;53.150;6.370;2023-04-08T13:50:12;31.52;;;20.55;;
52508;SDS011;38420;53.150;6.370;2023-04-08T13:52:38;27.98;;;19.17;;
52508;SDS011;38420;53.150;6.370;2023-04-08T13:55:04;34.35;;;19.25;;
52508;SDS011;38420;53.150;6.370;2023-04-08T13:57:30;24.33;;;16.65;;
52508;SDS011;38420;53.150;6.370;2023-04-08T13:59:55;24.38;;;17.33;;
52508;SDS011;38420;53.150;6.370;2023-04-08T14:02:21;24.02;;;16.63;;
52508;SDS011;38420;53.150;6.370;2023-04-08T14:04:47;25.13;;;17.17;;
52508;SDS011;38420;53.150;6.370;2023-04-08T14:07:12;25.48;;;17.25;;
52508;SDS011;38420;53.150;6.370;2023-04-08T14:09:38;24.40;;;17.10;;
52508;SDS011;38420;53.150;6.370;2023-04-08T14:12:04;27.15;;;18.08;;
52508;SDS011;38420;53.150;6.370;2023-04-08T14:14:30;24.40;;;15.88;;
52508;SDS011;38420;53.150;6.370;2023-04-08T14:16:56;21.65;;;14.80;;
52508;SDS011;38420;53.150;6.370;2023-04-08T14:19:21;20.80;;;15.27;;
52508;SDS011;38420;53.150;6.370;2023-04-08T14:21:47;21.90;;;15.60;;
52508;SDS011;38420;53.150;6.370;2023-04-08T14:24:13;21.65;;;14.77;;
52508;SDS011;38420;53.150;6.370;2023-04-08T14:26:38;22.33;;;15.38;;
52508;SDS011;38420;53.150;6.370;2023-04-08T14:29:05;21.67;;;13.85;;
52508;SDS011;38420;53.150;6.370;2023-04-08T14:31:31;20.80;;;13.85;;